sensor_id;sensor_type;location;lat;lon;timestamp;P1;P2;P0
76330;PMS7003;65148;51.912;15.570;2023-12-28T00:12:44;43;40;26
76330;PMS7003;65148;51.912;15.570;2023-12-28T00:32:51;46;39;25
76330;PMS7003;65148;51.912;15.570;2023-12-28T00:47:52;51;44;27
76330;PMS7003;65148;51.912;15.570;2023-12-28T01:02:58;36;35;22
76330;PMS7003;65148;51.912;15.570;2023-12-28T01:18:19;46;42;27
76330;PMS7003;65148;51.912;15.570;2023-12-28T01:33:20;58;47;30
76330;PMS7003;65148;51.912;15.570;2023-12-28T01:48:21;57;48;32
76330;PMS7003;65148;51.912;15.570;2023-12-28T02:03:22;55;46;31
76330;PMS7003;65148;51.912;15.570;2023-12-28T02:18:49;38;35;22
76330;PMS7003;65148;51.912;15.570;2023-12-28T02:33:58;41;37;24
76330;PMS7003;65148;51.912;15.570;2023-12-28T02:49:05;7;6;3
76330;PMS7003;65148;51.912;15.570;2023-12-28T03:04:31;31;26;19
76330;PMS7003;65148;51.912;15.570;2023-12-28T03:19:32;25;22;16
76330;PMS7003;65148;51.912;15.570;2023-12-28T03:34:33;21;18;11
76330;PMS7003;65148;51.912;15.570;2023-12-28T03:49:34;25;22;14
76330;PMS7003;65148;51.912;15.570;2023-12-28T04:04:59;15;15;12
76330;PMS7003;65148;51.912;15.570;2023-12-28T04:20:01;7;7;5
76330;PMS7003;65148;51.912;15.570;2023-12-28T04:35:02;7;7;6
76330;PMS7003;65148;51.912;15.570;2023-12-28T04:50:04;21;19;14
76330;PMS7003;65148;51.912;15.570;2023-12-28T05:05:25;27;27;16
76330;PMS7003;65148;51.912;15.570;2023-12-28T05:20:26;18;17;11
76330;PMS7003;65148;51.912;15.570;2023-12-28T05:35:27;11;11;9
76330;PMS7003;65148;51.912;15.570;2023-12-28T05:50:28;3;3;3
76330;PMS7003;65148;51.912;15.570;2023-12-28T06:05:51;6;5;4
76330;PMS7003;65148;51.912;15.570;2023-12-28T06:20:52;3;3;3
76330;PMS7003;65148;51.912;15.570;2023-12-28T06:35:53;14;10;8
76330;PMS7003;65148;51.912;15.570;2023-12-28T06:50:55;7;5;2
76330;PMS7003;65148;51.912;15.570;2023-12-28T07:06:16;10;7;5
76330;PMS7003;65148;51.912;15.570;2023-12-28T07:21:17;7;7;5
76330;PMS7003;65148;51.912;15.570;2023-12-28T07:36:18;8;6;4
76330;PMS7003;65148;51.912;15.570;2023-12-28T07:51:19;4;4;4
76330;PMS7003;65148;51.912;15.570;2023-12-28T08:06:41;15;13;11
76330;PMS7003;65148;51.912;15.570;2023-12-28T08:21:47;15;14;11
76330;PMS7003;65148;51.912;15.570;2023-12-28T08:36:48;5;4;4
76330;PMS7003;65148;51.912;15.570;2023-12-28T08:51:49;1;1;1
76330;PMS7003;65148;51.912;15.570;2023-12-28T09:07:06;2;2;2
76330;PMS7003;65148;51.912;15.570;2023-12-28T09:22:07;4;4;3
76330;PMS7003;65148;51.912;15.570;2023-12-28T09:37:08;2;2;1
76330;PMS7003;65148;51.912;15.570;2023-12-28T09:52:09;4;4;3
76330;PMS7003;65148;51.912;15.570;2023-12-28T10:07:30;2;1;1
76330;PMS7003;65148;51.912;15.570;2023-12-28T10:22:32;9;9;7
76330;PMS7003;65148;51.912;15.570;2023-12-28T10:37:33;3;3;3
76330;PMS7003;65148;51.912;15.570;2023-12-28T10:52:40;13;13;9
76330;PMS7003;65148;51.912;15.570;2023-12-28T11:07:58;0;0;0
76330;PMS7003;65148;51.912;15.570;2023-12-28T11:23:01;3;3;2
76330;PMS7003;65148;51.912;15.570;2023-12-28T11:38:03;2;2;2
76330;PMS7003;65148;51.912;15.570;2023-12-28T11:53:11;52;43;30
76330;PMS7003;65148;51.912;15.570;2023-12-28T12:08:25;4;4;3
76330;PMS7003;65148;51.912;15.570;2023-12-28T12:23:27;8;6;6
76330;PMS7003;65148;51.912;15.570;2023-12-28T12:38:28;3;3;3
76330;PMS7003;65148;51.912;15.570;2023-12-28T12:53:33;2;2;1
76330;PMS7003;65148;51.912;15.570;2023-12-28T13:08:49;5;5;4
76330;PMS7003;65148;51.912;15.570;2023-12-28T13:23:51;0;0;0
76330;PMS7003;65148;51.912;15.570;2023-12-28T13:38:52;1;1;1
76330;PMS7003;65148;51.912;15.570;2023-12-28T13:53:52;18;18;14
76330;PMS7003;65148;51.912;15.570;2023-12-28T14:08:53;2;2;1
76330;PMS7003;65148;51.912;15.570;2023-12-28T14:24:08;11;11;9
76330;PMS7003;65148;51.912;15.570;2023-12-28T14:39:09;9;9;7
76330;PMS7003;65148;51.912;15.570;2023-12-28T14:54:11;11;11;9
76330;PMS7003;65148;51.912;15.570;2023-12-28T15:09:11;5;5;3
76330;PMS7003;65148;51.912;15.570;2023-12-28T15:24:32;10;10;9
76330;PMS7003;65148;51.912;15.570;2023-12-28T15:39:33;4;4;3
76330;PMS7003;65148;51.912;15.570;2023-12-28T15:54:35;27;23;15
76330;PMS7003;65148;51.912;15.570;2023-12-28T16:09:36;38;31;14
76330;PMS7003;65148;51.912;15.570;2023-12-28T16:24:57;9;8;6
76330;PMS7003;65148;51.912;15.570;2023-12-28T16:40:02;15;14;8
76330;PMS7003;65148;51.912;15.570;2023-12-28T16:55:03;16;12;7
76330;PMS7003;65148;51.912;15.570;2023-12-28T17:10:04;62;50;34
76330;PMS7003;65148;51.912;15.570;2023-12-28T17:40:38;56;47;31
76330;PMS7003;65148;51.912;15.570;2023-12-28T17:55:39;65;54;34
76330;PMS7003;65148;51.912;15.570;2023-12-28T18:11:06;42;37;25
76330;PMS7003;65148;51.912;15.570;2023-12-28T18:26:08;46;40;25
76330;PMS7003;65148;51.912;15.570;2023-12-28T18:41:11;15;14;11
76330;PMS7003;65148;51.912;15.570;2023-12-28T18:56:12;25;22;18
76330;PMS7003;65148;51.912;15.570;2023-12-28T19:11:32;35;32;24
76330;PMS7003;65148;51.912;15.570;2023-12-28T19:26:33;20;20;13
76330;PMS7003;65148;51.912;15.570;2023-12-28T19:41:34;25;24;18
76330;PMS7003;65148;51.912;15.570;2023-12-28T19:56:35;39;35;24
76330;PMS7003;65148;51.912;15.570;2023-12-28T20:11:59;19;17;13
76330;PMS7003;65148;51.912;15.570;2023-12-28T20:27:00;21;19;12
76330;PMS7003;65148;51.912;15.570;2023-12-28T20:42:02;27;25;17
76330;PMS7003;65148;51.912;15.570;2023-12-28T20:57:03;46;41;27
76330;PMS7003;65148;51.912;15.570;2023-12-28T21:12:26;41;37;24
76330;PMS7003;65148;51.912;15.570;2023-12-28T21:27:37;38;35;24
76330;PMS7003;65148;51.912;15.570;2023-12-28T21:42:38;18;17;12
76330;PMS7003;65148;51.912;15.570;2023-12-28T21:58:08;12;10;8
76330;PMS7003;65148;51.912;15.570;2023-12-28T22:13:08;9;9;7
76330;PMS7003;65148;51.912;15.570;2023-12-28T22:28:10;18;15;11
76330;PMS7003;65148;51.912;15.570;2023-12-28T22:43:11;16;14;10
76330;PMS7003;65148;51.912;15.570;2023-12-28T22:58:33;16;16;12
76330;PMS7003;65148;51.912;15.570;2023-12-28T23:13:34;9;9;8
76330;PMS7003;65148;51.912;15.570;2023-12-28T23:28:37;11;10;7
76330;PMS7003;65148;51.912;15.570;2023-12-28T23:43:38;12;12;8
76330;PMS7003;65148;51.912;15.570;2023-12-28T23:58:59;8;8;6
